sensor_id;sensor_type;location;lat;lon;timestamp;P1;durP1;ratioP1;P2;durP2;ratioP2
50341;SDS011;76053;42.682;23.286;2024-02-26T00:01:36;85.72;;;57.80;;
50341;SDS011;76053;42.682;23.286;2024-02-26T00:04:37;57.28;;;38.80;;
50341;SDS011;76053;42.682;23.286;2024-02-26T00:07:37;43.10;;;31.30;;
50341;SDS011;76053;42.682;23.286;2024-02-26T00:10:38;42.70;;;28.33;;
50341;SDS011;76053;42.682;23.286;2024-02-26T00:13:38;102.10;;;68.40;;
50341;SDS011;76053;42.682;23.286;2024-02-26T00:16:41;523.78;;;384.08;;
50341;SDS011;76053;42.682;23.286;2024-02-26T00:19:42;375.70;;;260.55;;
50341;SDS011;76053;42.682;23.286;2024-02-26T00:22:42;214.38;;;141.23;;
50341;SDS011;76053;42.682;23.286;2024-02-26T00:25:43;122.45;;;80.47;;
50341;SDS011;76053;42.682;23.286;2024-02-26T00:28:43;107.57;;;74.13;;
50341;SDS011;76053;42.682;23.286;2024-02-26T00:31:43;151.18;;;91.97;;
50341;SDS011;76053;42.682;23.286;2024-02-26T00:34:44;152.70;;;89.97;;
50341;SDS011;76053;42.682;23.286;2024-02-26T00:37:44;156.25;;;89.10;;
50341;SDS011;76053;42.682;23.286;2024-02-26T00:40:45;162.57;;;92.47;;
50341;SDS011;76053;42.682;23.286;2024-02-26T00:43:45;153.63;;;87.82;;
50341;SDS011;76053;42.682;23.286;2024-02-26T00:46:46;155.68;;;84.93;;
50341;SDS011;76053;42.682;23.286;2024-02-26T00:49:46;152.88;;;82.93;;
50341;SDS011;76053;42.682;23.286;2024-02-26T00:52:47;140.00;;;77.82;;
50341;SDS011;76053;42.682;23.286;2024-02-26T00:55:47;136.52;;;74.93;;
50341;SDS011;76053;42.682;23.286;2024-02-26T00:58:47;129.32;;;72.97;;
50341;SDS011;76053;42.682;23.286;2024-02-26T01:01:48;132.85;;;72.70;;
50341;SDS011;76053;42.682;23.286;2024-02-26T01:04:48;1263.75;;;801.33;;
50341;SDS011;76053;42.682;23.286;2024-02-26T01:07:49;1909.65;;;956.70;;
50341;SDS011;76053;42.682;23.286;2024-02-26T01:10:49;1363.13;;;841.08;;
50341;SDS011;76053;42.682;23.286;2024-02-26T01:13:49;1758.72;;;927.97;;
50341;SDS011;76053;42.682;23.286;2024-02-26T01:16:50;1187.90;;;761.22;;
50341;SDS011;76053;42.682;23.286;2024-02-26T01:19:50;983.70;;;668.75;;
50341;SDS011;76053;42.682;23.286;2024-02-26T01:22:51;1486.85;;;866.15;;
50341;SDS011;76053;42.682;23.286;2024-02-26T01:25:51;1337.80;;;806.55;;
50341;SDS011;76053;42.682;23.286;2024-02-26T01:28:51;1484.65;;;853.38;;
50341;SDS011;76053;42.682;23.286;2024-02-26T01:31:52;1621.82;;;882.58;;
50341;SDS011;76053;42.682;23.286;2024-02-26T01:34:52;1627.38;;;871.05;;
50341;SDS011;76053;42.682;23.286;2024-02-26T01:37:52;1423.22;;;819.33;;
50341;SDS011;76053;42.682;23.286;2024-02-26T01:40:53;1504.53;;;839.03;;
50341;SDS011;76053;42.682;23.286;2024-02-26T01:43:53;1292.68;;;774.15;;
50341;SDS011;76053;42.682;23.286;2024-02-26T01:46:54;1086.72;;;678.20;;
50341;SDS011;76053;42.682;23.286;2024-02-26T01:49:54;965.45;;;623.42;;
50341;SDS011;76053;42.682;23.286;2024-02-26T01:52:55;1725.68;;;918.97;;
50341;SDS011;76053;42.682;23.286;2024-02-26T01:55:57;1844.38;;;949.05;;
50341;SDS011;76053;42.682;23.286;2024-02-26T01:58:58;1755.85;;;922.10;;
50341;SDS011;76053;42.682;23.286;2024-02-26T02:01:59;1756.13;;;908.72;;
50341;SDS011;76053;42.682;23.286;2024-02-26T02:05:01;1999.90;;;974.20;;
50341;SDS011;76053;42.682;23.286;2024-02-26T02:08:03;1688.35;;;886.17;;
50341;SDS011;76053;42.682;23.286;2024-02-26T02:11:04;1956.47;;;957.50;;
50341;SDS011;76053;42.682;23.286;2024-02-26T02:14:04;1772.97;;;913.47;;
50341;SDS011;76053;42.682;23.286;2024-02-26T02:17:05;1936.00;;;949.08;;
50341;SDS011;76053;42.682;23.286;2024-02-26T02:20:08;1679.80;;;872.72;;
50341;SDS011;76053;42.682;23.286;2024-02-26T02:23:14;1635.55;;;880.33;;
50341;SDS011;76053;42.682;23.286;2024-02-26T02:26:15;1999.90;;;983.55;;
50341;SDS011;76053;42.682;23.286;2024-02-26T02:29:16;1999.90;;;975.00;;
50341;SDS011;76053;42.682;23.286;2024-02-26T02:32:16;1999.90;;;968.13;;
50341;SDS011;76053;42.682;23.286;2024-02-26T02:35:18;1755.43;;;894.45;;
50341;SDS011;76053;42.682;23.286;2024-02-26T02:38:18;1822.70;;;925.03;;
50341;SDS011;76053;42.682;23.286;2024-02-26T02:41:18;1609.30;;;850.45;;
50341;SDS011;76053;42.682;23.286;2024-02-26T02:44:19;1487.97;;;814.50;;
50341;SDS011;76053;42.682;23.286;2024-02-26T02:47:19;1497.00;;;820.65;;
50341;SDS011;76053;42.682;23.286;2024-02-26T02:50:19;1935.80;;;955.20;;
50341;SDS011;76053;42.682;23.286;2024-02-26T02:53:20;1664.28;;;878.88;;
50341;SDS011;76053;42.682;23.286;2024-02-26T02:56:20;1471.15;;;813.55;;
50341;SDS011;76053;42.682;23.286;2024-02-26T02:59:20;1350.45;;;777.90;;
50341;SDS011;76053;42.682;23.286;2024-02-26T03:02:21;1214.22;;;717.45;;
50341;SDS011;76053;42.682;23.286;2024-02-26T03:05:21;1072.85;;;665.35;;
50341;SDS011;76053;42.682;23.286;2024-02-26T03:08:22;1040.95;;;653.20;;
50341;SDS011;76053;42.682;23.286;2024-02-26T03:11:22;958.40;;;620.72;;
50341;SDS011;76053;42.682;23.286;2024-02-26T03:14:23;906.13;;;590.40;;
50341;SDS011;76053;42.682;23.286;2024-02-26T03:17:23;801.60;;;533.53;;
50341;SDS011;76053;42.682;23.286;2024-02-26T03:20:23;711.78;;;487.20;;
50341;SDS011;76053;42.682;23.286;2024-02-26T03:23:24;642.15;;;436.58;;
50341;SDS011;76053;42.682;23.286;2024-02-26T03:26:24;528.00;;;357.13;;
50341;SDS011;76053;42.682;23.286;2024-02-26T03:29:25;427.10;;;284.15;;
50341;SDS011;76053;42.682;23.286;2024-02-26T03:32:25;294.30;;;189.88;;
50341;SDS011;76053;42.682;23.286;2024-02-26T03:35:25;192.43;;;122.38;;
50341;SDS011;76053;42.682;23.286;2024-02-26T03:38:26;129.30;;;82.22;;
50341;SDS011;76053;42.682;23.286;2024-02-26T03:41:26;100.78;;;66.82;;
50341;SDS011;76053;42.682;23.286;2024-02-26T03:44:26;69.65;;;48.58;;
50341;SDS011;76053;42.682;23.286;2024-02-26T03:47:27;56.47;;;39.72;;
50341;SDS011;76053;42.682;23.286;2024-02-26T03:50:27;50.35;;;37.20;;
50341;SDS011;76053;42.682;23.286;2024-02-26T03:53:27;47.17;;;33.58;;
50341;SDS011;76053;42.682;23.286;2024-02-26T03:56:28;39.20;;;29.90;;
50341;SDS011;76053;42.682;23.286;2024-02-26T03:59:28;43.53;;;29.27;;
50341;SDS011;76053;42.682;23.286;2024-02-26T04:02:29;43.13;;;29.13;;
50341;SDS011;76053;42.682;23.286;2024-02-26T04:05:29;40.55;;;28.88;;
50341;SDS011;76053;42.682;23.286;2024-02-26T04:08:29;39.17;;;26.60;;
50341;SDS011;76053;42.682;23.286;2024-02-26T04:11:30;39.22;;;25.80;;
50341;SDS011;76053;42.682;23.286;2024-02-26T04:14:30;38.30;;;26.33;;
50341;SDS011;76053;42.682;23.286;2024-02-26T04:17:31;32.97;;;25.13;;
50341;SDS011;76053;42.682;23.286;2024-02-26T04:20:31;33.97;;;23.48;;
50341;SDS011;76053;42.682;23.286;2024-02-26T04:23:31;35.22;;;24.75;;
50341;SDS011;76053;42.682;23.286;2024-02-26T04:26:32;33.00;;;22.55;;
50341;SDS011;76053;42.682;23.286;2024-02-26T04:29:32;31.80;;;22.70;;
50341;SDS011;76053;42.682;23.286;2024-02-26T04:32:32;33.08;;;21.75;;
50341;SDS011;76053;42.682;23.286;2024-02-26T04:35:33;31.83;;;23.35;;
50341;SDS011;76053;42.682;23.286;2024-02-26T04:38:33;27.52;;;21.67;;
50341;SDS011;76053;42.682;23.286;2024-02-26T04:41:34;31.48;;;22.35;;
50341;SDS011;76053;42.682;23.286;2024-02-26T04:44:34;27.08;;;21.25;;
50341;SDS011;76053;42.682;23.286;2024-02-26T04:47:34;27.42;;;20.55;;
50341;SDS011;76053;42.682;23.286;2024-02-26T04:50:35;27.02;;;19.83;;
50341;SDS011;76053;42.682;23.286;2024-02-26T04:53:35;31.00;;;20.52;;
50341;SDS011;76053;42.682;23.286;2024-02-26T04:56:35;26.38;;;19.75;;
50341;SDS011;76053;42.682;23.286;2024-02-26T04:59:36;26.35;;;19.17;;
50341;SDS011;76053;42.682;23.286;2024-02-26T05:02:36;25.10;;;19.52;;
50341;SDS011;76053;42.682;23.286;2024-02-26T05:05:37;25.13;;;18.58;;
50341;SDS011;76053;42.682;23.286;2024-02-26T05:08:37;25.65;;;19.23;;
50341;SDS011;76053;42.682;23.286;2024-02-26T05:11:37;23.60;;;17.13;;
50341;SDS011;76053;42.682;23.286;2024-02-26T05:14:38;22.38;;;18.25;;
50341;SDS011;76053;42.682;23.286;2024-02-26T05:17:39;26.45;;;19.73;;
50341;SDS011;76053;42.682;23.286;2024-02-26T05:20:39;23.02;;;17.20;;
50341;SDS011;76053;42.682;23.286;2024-02-26T05:23:40;25.67;;;19.40;;
50341;SDS011;76053;42.682;23.286;2024-02-26T05:26:40;24.13;;;17.58;;
50341;SDS011;76053;42.682;23.286;2024-02-26T05:29:41;22.48;;;17.95;;
50341;SDS011;76053;42.682;23.286;2024-02-26T05:32:41;23.75;;;18.38;;
50341;SDS011;76053;42.682;23.286;2024-02-26T05:35:41;23.60;;;16.92;;
50341;SDS011;76053;42.682;23.286;2024-02-26T05:38:42;22.77;;;17.73;;
50341;SDS011;76053;42.682;23.286;2024-02-26T05:41:42;24.30;;;18.60;;
50341;SDS011;76053;42.682;23.286;2024-02-26T05:44:43;26.02;;;17.77;;
50341;SDS011;76053;42.682;23.286;2024-02-26T05:47:43;24.85;;;19.00;;
50341;SDS011;76053;42.682;23.286;2024-02-26T05:50:44;29.02;;;17.60;;
50341;SDS011;76053;42.682;23.286;2024-02-26T05:53:45;23.95;;;17.92;;
50341;SDS011;76053;42.682;23.286;2024-02-26T05:56:45;21.20;;;16.73;;
50341;SDS011;76053;42.682;23.286;2024-02-26T05:59:45;20.27;;;16.00;;
50341;SDS011;76053;42.682;23.286;2024-02-26T06:02:46;21.52;;;17.50;;
50341;SDS011;76053;42.682;23.286;2024-02-26T06:05:46;20.67;;;15.75;;
50341;SDS011;76053;42.682;23.286;2024-02-26T06:08:47;22.17;;;15.77;;
50341;SDS011;76053;42.682;23.286;2024-02-26T06:11:47;24.45;;;16.25;;
50341;SDS011;76053;42.682;23.286;2024-02-26T06:14:47;23.90;;;16.75;;
50341;SDS011;76053;42.682;23.286;2024-02-26T06:17:48;21.73;;;15.63;;
50341;SDS011;76053;42.682;23.286;2024-02-26T06:20:48;20.67;;;16.58;;
50341;SDS011;76053;42.682;23.286;2024-02-26T06:23:49;20.98;;;15.43;;
50341;SDS011;76053;42.682;23.286;2024-02-26T06:26:49;17.48;;;14.63;;
50341;SDS011;76053;42.682;23.286;2024-02-26T06:29:49;22.40;;;16.77;;
50341;SDS011;76053;42.682;23.286;2024-02-26T06:32:50;21.42;;;15.25;;
50341;SDS011;76053;42.682;23.286;2024-02-26T06:35:50;20.95;;;15.68;;
50341;SDS011;76053;42.682;23.286;2024-02-26T06:38:51;18.60;;;14.93;;
50341;SDS011;76053;42.682;23.286;2024-02-26T06:41:51;19.73;;;14.93;;
50341;SDS011;76053;42.682;23.286;2024-02-26T06:44:51;20.52;;;15.38;;
50341;SDS011;76053;42.682;23.286;2024-02-26T06:47:52;15.90;;;13.57;;
50341;SDS011;76053;42.682;23.286;2024-02-26T06:50:52;20.83;;;14.70;;
50341;SDS011;76053;42.682;23.286;2024-02-26T06:53:52;17.08;;;14.20;;
50341;SDS011;76053;42.682;23.286;2024-02-26T06:56:53;16.38;;;14.48;;
50341;SDS011;76053;42.682;23.286;2024-02-26T06:59:53;18.75;;;13.63;;
50341;SDS011;76053;42.682;23.286;2024-02-26T07:02:54;16.42;;;13.68;;
50341;SDS011;76053;42.682;23.286;2024-02-26T07:05:54;17.38;;;14.35;;
50341;SDS011;76053;42.682;23.286;2024-02-26T07:08:54;20.77;;;14.25;;
50341;SDS011;76053;42.682;23.286;2024-02-26T07:11:55;18.27;;;12.57;;
50341;SDS011;76053;42.682;23.286;2024-02-26T07:14:55;19.15;;;13.00;;
50341;SDS011;76053;42.682;23.286;2024-02-26T07:17:56;19.70;;;14.20;;
50341;SDS011;76053;42.682;23.286;2024-02-26T07:20:56;21.95;;;14.98;;
50341;SDS011;76053;42.682;23.286;2024-02-26T07:23:57;17.45;;;14.30;;
50341;SDS011;76053;42.682;23.286;2024-02-26T07:26:57;18.33;;;13.90;;
50341;SDS011;76053;42.682;23.286;2024-02-26T07:29:57;21.27;;;15.60;;
50341;SDS011;76053;42.682;23.286;2024-02-26T07:32:58;16.38;;;13.32;;
50341;SDS011;76053;42.682;23.286;2024-02-26T07:35:58;16.83;;;14.10;;
50341;SDS011;76053;42.682;23.286;2024-02-26T07:38:59;18.85;;;13.77;;
50341;SDS011;76053;42.682;23.286;2024-02-26T07:41:59;17.70;;;13.52;;
50341;SDS011;76053;42.682;23.286;2024-02-26T07:44:59;17.17;;;13.50;;
50341;SDS011;76053;42.682;23.286;2024-02-26T07:48:00;16.02;;;12.48;;
50341;SDS011;76053;42.682;23.286;2024-02-26T07:51:00;14.73;;;11.82;;
50341;SDS011;76053;42.682;23.286;2024-02-26T07:54:01;17.13;;;13.63;;
50341;SDS011;76053;42.682;23.286;2024-02-26T07:57:02;15.57;;;13.05;;
50341;SDS011;76053;42.682;23.286;2024-02-26T08:00:02;16.05;;;13.70;;
50341;SDS011;76053;42.682;23.286;2024-02-26T08:03:03;16.95;;;13.45;;
50341;SDS011;76053;42.682;23.286;2024-02-26T08:06:04;17.42;;;12.05;;
50341;SDS011;76053;42.682;23.286;2024-02-26T08:09:04;16.70;;;12.88;;
50341;SDS011;76053;42.682;23.286;2024-02-26T08:12:05;14.80;;;12.82;;
50341;SDS011;76053;42.682;23.286;2024-02-26T08:15:06;16.95;;;12.63;;
50341;SDS011;76053;42.682;23.286;2024-02-26T08:18:07;17.83;;;13.52;;
50341;SDS011;76053;42.682;23.286;2024-02-26T08:21:07;14.95;;;13.35;;
50341;SDS011;76053;42.682;23.286;2024-02-26T08:24:07;17.65;;;13.40;;
50341;SDS011;76053;42.682;23.286;2024-02-26T08:27:08;15.38;;;13.27;;
50341;SDS011;76053;42.682;23.286;2024-02-26T08:30:09;15.98;;;14.00;;
50341;SDS011;76053;42.682;23.286;2024-02-26T08:33:09;14.70;;;13.15;;
50341;SDS011;76053;42.682;23.286;2024-02-26T08:36:11;16.50;;;14.27;;
50341;SDS011;76053;42.682;23.286;2024-02-26T08:39:11;15.38;;;13.88;;
50341;SDS011;76053;42.682;23.286;2024-02-26T08:42:12;18.30;;;12.70;;
50341;SDS011;76053;42.682;23.286;2024-02-26T08:45:12;15.75;;;13.27;;
50341;SDS011;76053;42.682;23.286;2024-02-26T08:48:12;16.42;;;12.93;;
50341;SDS011;76053;42.682;23.286;2024-02-26T08:51:13;16.75;;;13.32;;
50341;SDS011;76053;42.682;23.286;2024-02-26T08:54:13;16.35;;;13.75;;
50341;SDS011;76053;42.682;23.286;2024-02-26T08:57:14;14.48;;;12.77;;
50341;SDS011;76053;42.682;23.286;2024-02-26T09:00:14;13.70;;;12.40;;
50341;SDS011;76053;42.682;23.286;2024-02-26T09:03:15;14.45;;;12.93;;
50341;SDS011;76053;42.682;23.286;2024-02-26T09:06:15;15.70;;;13.70;;
50341;SDS011;76053;42.682;23.286;2024-02-26T09:09:16;15.57;;;13.40;;
50341;SDS011;76053;42.682;23.286;2024-02-26T09:12:16;14.40;;;12.90;;
50341;SDS011;76053;42.682;23.286;2024-02-26T09:15:16;15.85;;;12.25;;
50341;SDS011;76053;42.682;23.286;2024-02-26T09:18:17;16.45;;;13.27;;
50341;SDS011;76053;42.682;23.286;2024-02-26T09:21:17;17.20;;;12.82;;
50341;SDS011;76053;42.682;23.286;2024-02-26T09:24:17;12.77;;;11.48;;
50341;SDS011;76053;42.682;23.286;2024-02-26T09:27:18;14.50;;;12.68;;
50341;SDS011;76053;42.682;23.286;2024-02-26T09:30:18;13.55;;;11.55;;
50341;SDS011;76053;42.682;23.286;2024-02-26T09:33:19;15.25;;;13.13;;
50341;SDS011;76053;42.682;23.286;2024-02-26T09:36:19;12.48;;;11.18;;
50341;SDS011;76053;42.682;23.286;2024-02-26T09:39:19;13.00;;;11.32;;
50341;SDS011;76053;42.682;23.286;2024-02-26T09:42:20;16.65;;;11.93;;
50341;SDS011;76053;42.682;23.286;2024-02-26T09:45:22;13.18;;;11.27;;
50341;SDS011;76053;42.682;23.286;2024-02-26T09:48:24;12.65;;;10.73;;
50341;SDS011;76053;42.682;23.286;2024-02-26T09:51:25;10.90;;;9.77;;
50341;SDS011;76053;42.682;23.286;2024-02-26T09:54:26;13.45;;;10.85;;
50341;SDS011;76053;42.682;23.286;2024-02-26T09:57:27;14.02;;;10.60;;
50341;SDS011;76053;42.682;23.286;2024-02-26T10:00:28;11.80;;;10.48;;
50341;SDS011;76053;42.682;23.286;2024-02-26T10:03:32;20.05;;;10.52;;
50341;SDS011;76053;42.682;23.286;2024-02-26T10:06:37;13.63;;;10.48;;
50341;SDS011;76053;42.682;23.286;2024-02-26T10:09:37;16.02;;;10.85;;
50341;SDS011;76053;42.682;23.286;2024-02-26T10:12:38;12.60;;;10.02;;
50341;SDS011;76053;42.682;23.286;2024-02-26T10:15:39;10.52;;;9.43;;
50341;SDS011;76053;42.682;23.286;2024-02-26T10:18:52;16.38;;;9.63;;
50341;SDS011;76053;42.682;23.286;2024-02-26T10:21:56;16.05;;;10.40;;
50341;SDS011;76053;42.682;23.286;2024-02-26T10:24:57;13.98;;;9.85;;
50341;SDS011;76053;42.682;23.286;2024-02-26T10:28:00;10.32;;;9.25;;
50341;SDS011;76053;42.682;23.286;2024-02-26T10:31:01;13.88;;;9.48;;
50341;SDS011;76053;42.682;23.286;2024-02-26T10:34:02;12.43;;;9.05;;
50341;SDS011;76053;42.682;23.286;2024-02-26T10:37:04;10.93;;;9.50;;
50341;SDS011;76053;42.682;23.286;2024-02-26T10:40:05;50.17;;;18.58;;
50341;SDS011;76053;42.682;23.286;2024-02-26T10:43:08;175.98;;;62.80;;
50341;SDS011;76053;42.682;23.286;2024-02-26T10:46:08;148.35;;;50.65;;
50341;SDS011;76053;42.682;23.286;2024-02-26T10:49:13;105.80;;;39.78;;
50341;SDS011;76053;42.682;23.286;2024-02-26T10:52:15;100.90;;;36.83;;
50341;SDS011;76053;42.682;23.286;2024-02-26T10:55:16;87.25;;;34.05;;
50341;SDS011;76053;42.682;23.286;2024-02-26T10:58:16;76.72;;;29.42;;
50341;SDS011;76053;42.682;23.286;2024-02-26T11:01:18;62.13;;;26.55;;
50341;SDS011;76053;42.682;23.286;2024-02-26T11:04:20;56.35;;;24.30;;
50341;SDS011;76053;42.682;23.286;2024-02-26T11:07:22;165.00;;;131.88;;
50341;SDS011;76053;42.682;23.286;2024-02-26T11:10:22;61.40;;;27.45;;
50341;SDS011;76053;42.682;23.286;2024-02-26T11:13:28;46.03;;;20.60;;
50341;SDS011;76053;42.682;23.286;2024-02-26T11:16:30;33.95;;;19.50;;
50341;SDS011;76053;42.682;23.286;2024-02-26T11:19:32;29.08;;;16.58;;
50341;SDS011;76053;42.682;23.286;2024-02-26T11:22:36;24.88;;;16.63;;
50341;SDS011;76053;42.682;23.286;2024-02-26T11:25:38;27.05;;;15.63;;
50341;SDS011;76053;42.682;23.286;2024-02-26T11:28:39;23.83;;;13.98;;
50341;SDS011;76053;42.682;23.286;2024-02-26T11:31:40;24.80;;;15.15;;
50341;SDS011;76053;42.682;23.286;2024-02-26T11:34:41;25.42;;;15.90;;
50341;SDS011;76053;42.682;23.286;2024-02-26T11:37:51;23.50;;;14.30;;
50341;SDS011;76053;42.682;23.286;2024-02-26T11:40:53;23.25;;;14.80;;
50341;SDS011;76053;42.682;23.286;2024-02-26T11:43:57;17.80;;;13.20;;
50341;SDS011;76053;42.682;23.286;2024-02-26T11:47:00;22.50;;;14.80;;
50341;SDS011;76053;42.682;23.286;2024-02-26T11:53:36;122.65;;;95.35;;
50341;SDS011;76053;42.682;23.286;2024-02-26T11:56:46;312.45;;;237.57;;
50341;SDS011;76053;42.682;23.286;2024-02-26T11:59:47;44.47;;;32.97;;
50341;SDS011;76053;42.682;23.286;2024-02-26T12:02:49;42.17;;;32.45;;
50341;SDS011;76053;42.682;23.286;2024-02-26T12:05:51;28.63;;;22.98;;
50341;SDS011;76053;42.682;23.286;2024-02-26T12:08:51;51.30;;;44.25;;
50341;SDS011;76053;42.682;23.286;2024-02-26T12:11:52;110.65;;;89.60;;
50341;SDS011;76053;42.682;23.286;2024-02-26T12:14:59;37.00;;;29.40;;
50341;SDS011;76053;42.682;23.286;2024-02-26T12:18:02;42.97;;;32.70;;
50341;SDS011;76053;42.682;23.286;2024-02-26T12:21:03;322.15;;;255.65;;
50341;SDS011;76053;42.682;23.286;2024-02-26T12:24:11;40.38;;;29.30;;
50341;SDS011;76053;42.682;23.286;2024-02-26T12:27:15;44.70;;;31.60;;
50341;SDS011;76053;42.682;23.286;2024-02-26T12:30:15;28.58;;;20.77;;
50341;SDS011;76053;42.682;23.286;2024-02-26T12:33:15;16.05;;;12.10;;
50341;SDS011;76053;42.682;23.286;2024-02-26T12:36:16;12.82;;;9.93;;
50341;SDS011;76053;42.682;23.286;2024-02-26T12:39:16;265.35;;;214.88;;
50341;SDS011;76053;42.682;23.286;2024-02-26T12:42:17;15.40;;;10.38;;
50341;SDS011;76053;42.682;23.286;2024-02-26T12:45:17;17.13;;;11.07;;
50341;SDS011;76053;42.682;23.286;2024-02-26T12:48:18;11.82;;;10.38;;
50341;SDS011;76053;42.682;23.286;2024-02-26T12:51:19;13.63;;;10.15;;
50341;SDS011;76053;42.682;23.286;2024-02-26T12:54:19;14.98;;;11.75;;
50341;SDS011;76053;42.682;23.286;2024-02-26T12:57:20;10.85;;;9.13;;
50341;SDS011;76053;42.682;23.286;2024-02-26T13:00:25;13.40;;;9.68;;
50341;SDS011;76053;42.682;23.286;2024-02-26T13:03:26;11.68;;;8.57;;
50341;SDS011;76053;42.682;23.286;2024-02-26T13:06:28;8.48;;;7.55;;
50341;SDS011;76053;42.682;23.286;2024-02-26T13:09:30;7.47;;;6.70;;
50341;SDS011;76053;42.682;23.286;2024-02-26T13:12:33;7.68;;;6.88;;
50341;SDS011;76053;42.682;23.286;2024-02-26T13:15:33;9.30;;;6.90;;
50341;SDS011;76053;42.682;23.286;2024-02-26T13:18:34;8.02;;;6.13;;
50341;SDS011;76053;42.682;23.286;2024-02-26T13:21:34;10.93;;;6.82;;
50341;SDS011;76053;42.682;23.286;2024-02-26T13:24:35;7.75;;;5.90;;
50341;SDS011;76053;42.682;23.286;2024-02-26T13:27:36;7.13;;;6.43;;
50341;SDS011;76053;42.682;23.286;2024-02-26T13:30:36;7.50;;;6.57;;
50341;SDS011;76053;42.682;23.286;2024-02-26T13:33:36;19.50;;;15.07;;
50341;SDS011;76053;42.682;23.286;2024-02-26T13:36:37;13.38;;;9.90;;
50341;SDS011;76053;42.682;23.286;2024-02-26T13:39:38;9.98;;;8.38;;
50341;SDS011;76053;42.682;23.286;2024-02-26T13:42:38;7.47;;;6.70;;
50341;SDS011;76053;42.682;23.286;2024-02-26T13:45:39;9.93;;;6.63;;
50341;SDS011;76053;42.682;23.286;2024-02-26T13:48:40;7.13;;;6.43;;
50341;SDS011;76053;42.682;23.286;2024-02-26T13:51:40;7.00;;;5.65;;
50341;SDS011;76053;42.682;23.286;2024-02-26T13:54:41;6.45;;;5.53;;
50341;SDS011;76053;42.682;23.286;2024-02-26T13:57:41;9.07;;;5.85;;
50341;SDS011;76053;42.682;23.286;2024-02-26T14:00:42;5.95;;;5.35;;
50341;SDS011;76053;42.682;23.286;2024-02-26T14:03:42;687.15;;;514.75;;
50341;SDS011;76053;42.682;23.286;2024-02-26T14:06:43;11.50;;;8.52;;
50341;SDS011;76053;42.682;23.286;2024-02-26T14:09:43;7.78;;;6.22;;
50341;SDS011;76053;42.682;23.286;2024-02-26T14:12:44;9.55;;;7.63;;
50341;SDS011;76053;42.682;23.286;2024-02-26T14:15:44;11.35;;;7.82;;
50341;SDS011;76053;42.682;23.286;2024-02-26T14:18:44;7.15;;;6.45;;
50341;SDS011;76053;42.682;23.286;2024-02-26T14:21:45;7.88;;;6.30;;
50341;SDS011;76053;42.682;23.286;2024-02-26T14:24:45;618.53;;;551.13;;
50341;SDS011;76053;42.682;23.286;2024-02-26T14:27:46;12.18;;;9.52;;
50341;SDS011;76053;42.682;23.286;2024-02-26T14:30:47;11.82;;;9.10;;
50341;SDS011;76053;42.682;23.286;2024-02-26T14:33:48;11.43;;;9.23;;
50341;SDS011;76053;42.682;23.286;2024-02-26T14:36:48;8.48;;;6.72;;
50341;SDS011;76053;42.682;23.286;2024-02-26T14:39:49;6.82;;;6.13;;
50341;SDS011;76053;42.682;23.286;2024-02-26T14:42:49;7.65;;;5.32;;
50341;SDS011;76053;42.682;23.286;2024-02-26T14:45:49;6.93;;;6.22;;
50341;SDS011;76053;42.682;23.286;2024-02-26T14:48:50;5.78;;;4.78;;
50341;SDS011;76053;42.682;23.286;2024-02-26T14:51:50;6.20;;;4.60;;
50341;SDS011;76053;42.682;23.286;2024-02-26T14:54:51;4.15;;;3.70;;
50341;SDS011;76053;42.682;23.286;2024-02-26T14:57:51;6.32;;;4.25;;
50341;SDS011;76053;42.682;23.286;2024-02-26T15:00:51;6.82;;;4.93;;
50341;SDS011;76053;42.682;23.286;2024-02-26T15:03:52;8.55;;;6.40;;
50341;SDS011;76053;42.682;23.286;2024-02-26T15:06:52;4.85;;;3.78;;
50341;SDS011;76053;42.682;23.286;2024-02-26T15:09:53;11.63;;;9.82;;
50341;SDS011;76053;42.682;23.286;2024-02-26T15:12:53;6.30;;;4.45;;
50341;SDS011;76053;42.682;23.286;2024-02-26T15:15:53;6.03;;;4.85;;
50341;SDS011;76053;42.682;23.286;2024-02-26T15:18:54;6.55;;;4.40;;
50341;SDS011;76053;42.682;23.286;2024-02-26T15:21:54;46.95;;;36.08;;
50341;SDS011;76053;42.682;23.286;2024-02-26T15:24:54;52.25;;;33.08;;
50341;SDS011;76053;42.682;23.286;2024-02-26T15:27:55;15.98;;;10.18;;
50341;SDS011;76053;42.682;23.286;2024-02-26T15:30:55;19.35;;;16.40;;
50341;SDS011;76053;42.682;23.286;2024-02-26T15:33:56;29.02;;;25.33;;
50341;SDS011;76053;42.682;23.286;2024-02-26T15:36:56;23.15;;;15.77;;
50341;SDS011;76053;42.682;23.286;2024-02-26T15:39:57;12.80;;;11.27;;
50341;SDS011;76053;42.682;23.286;2024-02-26T15:42:57;10.95;;;9.77;;
50341;SDS011;76053;42.682;23.286;2024-02-26T15:45:57;11.52;;;8.63;;
50341;SDS011;76053;42.682;23.286;2024-02-26T15:48:58;9.05;;;8.15;;
50341;SDS011;76053;42.682;23.286;2024-02-26T15:51:58;8.65;;;7.47;;
50341;SDS011;76053;42.682;23.286;2024-02-26T15:54:58;7.65;;;6.00;;
50341;SDS011;76053;42.682;23.286;2024-02-26T15:57:59;8.27;;;5.93;;
50341;SDS011;76053;42.682;23.286;2024-02-26T16:00:59;10.73;;;6.60;;
50341;SDS011;76053;42.682;23.286;2024-02-26T16:03:59;427.80;;;316.85;;
50341;SDS011;76053;42.682;23.286;2024-02-26T16:07:02;610.58;;;457.27;;
50341;SDS011;76053;42.682;23.286;2024-02-26T16:10:04;38.42;;;24.58;;
50341;SDS011;76053;42.682;23.286;2024-02-26T16:13:05;248.95;;;184.73;;
50341;SDS011;76053;42.682;23.286;2024-02-26T16:16:08;10.80;;;8.40;;
50341;SDS011;76053;42.682;23.286;2024-02-26T16:19:13;9.60;;;7.00;;
50341;SDS011;76053;42.682;23.286;2024-02-26T16:22:16;1197.28;;;777.58;;
50341;SDS011;76053;42.682;23.286;2024-02-26T16:25:17;229.65;;;153.43;;
50341;SDS011;76053;42.682;23.286;2024-02-26T16:28:17;145.90;;;97.45;;
50341;SDS011;76053;42.682;23.286;2024-02-26T16:31:18;65.43;;;42.40;;
50341;SDS011;76053;42.682;23.286;2024-02-26T16:34:18;91.32;;;58.17;;
50341;SDS011;76053;42.682;23.286;2024-02-26T16:37:19;16.60;;;11.23;;
50341;SDS011;76053;42.682;23.286;2024-02-26T16:40:20;10.70;;;7.25;;
50341;SDS011;76053;42.682;23.286;2024-02-26T16:43:21;7.18;;;5.95;;
50341;SDS011;76053;42.682;23.286;2024-02-26T16:46:21;21.02;;;14.80;;
50341;SDS011;76053;42.682;23.286;2024-02-26T16:49:22;7.90;;;6.20;;
50341;SDS011;76053;42.682;23.286;2024-02-26T16:52:22;7.50;;;5.10;;
50341;SDS011;76053;42.682;23.286;2024-02-26T16:55:23;7.75;;;5.07;;
50341;SDS011;76053;42.682;23.286;2024-02-26T16:58:23;5.80;;;4.22;;
50341;SDS011;76053;42.682;23.286;2024-02-26T17:01:23;8.55;;;4.55;;
50341;SDS011;76053;42.682;23.286;2024-02-26T17:04:24;994.58;;;770.33;;
50341;SDS011;76053;42.682;23.286;2024-02-26T17:07:25;82.38;;;55.38;;
50341;SDS011;76053;42.682;23.286;2024-02-26T17:10:25;543.20;;;430.92;;
50341;SDS011;76053;42.682;23.286;2024-02-26T17:13:26;108.38;;;72.00;;
50341;SDS011;76053;42.682;23.286;2024-02-26T17:16:26;49.50;;;30.05;;
50341;SDS011;76053;42.682;23.286;2024-02-26T17:19:27;1272.57;;;830.28;;
50341;SDS011;76053;42.682;23.286;2024-02-26T17:22:28;453.58;;;320.60;;